Rita Br — ICGN — position and weather

sailwx.info

Track history (hours):
 
Tides and Currents Weather Stations Pressure Air Temp Water Temp Dewpoint Dewpoint Depression Visibility Wind Speed Wind Dir Waves Ship Positions

Rita Br

Last reported at 2017-Oct-12 05:35 UTC. Time now 2017-Oct-23 04:37 UTC.
Position N 33°08' W 008°42'.
Warning: this ship's position is 10 days out of date.

Length 135 m; draft 6.6 m.

Type: Cargo ship. MMSI: 247216300.

Date/timePositionNaut miles runAvg speedWind from/ knotsBaromVisibWave heightAir tempDewpointWater temp
2017-Oct-12 05:35N 33°08' W 008°42'0 0.0
2017-Oct-12 00:05N 33°08' W 008°42'0 0.1
2017-Oct-11 23:53N 33°08' W 008°42'0 0.0
2017-Oct-11 23:08N 33°08' W 008°42'0 0.1
2017-Oct-11 22:53N 33°08' W 008°42'0 0.1
2017-Oct-11 22:23N 33°08' W 008°42'0 0.0
2017-Oct-11 21:53N 33°08' W 008°42'0 0.0
2017-Oct-11 21:23N 33°08' W 008°42'151 7.0
2017-Oct-10 23:52N 35°37' W 009°16'410.9
2017-Oct-10 23:29N 35°41' W 009°17'611.1
2017-Oct-10 22:59N 35°47' W 009°18'511.1
2017-Oct-10 22:30N 35°52' W 009°20'611.2
2017-Oct-10 22:00N 35°57' W 009°21'611.3
2017-Oct-10 21:30N 36°03' W 009°22'611.3
2017-Oct-10 21:00N 36°09' W 009°23'611.4
2017-Oct-10 20:30N 36°14' W 009°25'510.9
2017-Oct-10 20:00N 36°20' W 009°26'510.8
2017-Oct-10 19:30N 36°25' W 009°28'611.1
2017-Oct-10 19:00N 36°30' W 009°29'611.2
2017-Oct-10 18:30N 36°36' W 009°30'611.4
2017-Oct-10 18:00N 36°41' W 009°32'611.4
2017-Oct-10 17:30N 36°47' W 009°33'611.3
2017-Oct-10 17:00N 36°52' W 009°34'510.9
2017-Oct-10 16:30N 36°57' W 009°36'610.9
2017-Oct-10 15:55N 37°04' W 009°38'711.2
2017-Oct-10 15:20N 37°10' W 009°40'411.4
2017-Oct-10 15:00N 37°14' W 009°41'1211.4
2017-Oct-10 13:55N 37°26' W 009°44'511.4
2017-Oct-10 13:30N 37°30' W 009°46'611.3
2017-Oct-10 13:00N 37°36' W 009°47'611.2
2017-Oct-10 12:30N 37°41' W 009°48'611.2
2017-Oct-10 12:00N 37°47' W 009°50'611.0
2017-Oct-10 11:30N 37°52' W 009°52'611.4
2017-Oct-10 11:00N 37°58' W 009°54'611.5
2017-Oct-10 10:30N 38°03' W 009°55'611.2
2017-Oct-10 10:00N 38°09' W 009°57'611.4
2017-Oct-10 09:30N 38°14' W 009°58'611.2
2017-Oct-10 09:00N 38°20' W 010°00'611.1
2017-Oct-10 08:30N 38°25' W 010°01'611.3
2017-Oct-10 08:00N 38°31' W 010°03'611.2
2017-Oct-10 07:30N 38°36' W 010°04'611.2
2017-Oct-10 07:00N 38°42' W 010°06'611.0
2017-Oct-10 06:30N 38°47' W 010°06'611.4
2017-Oct-10 06:00N 38°53' W 010°07'611.4
2017-Oct-10 05:30N 38°59' W 010°07'510.9
2017-Oct-10 05:00N 39°04' W 010°06'510.9
2017-Oct-10 04:30N 39°10' W 010°06'611.2
2017-Oct-10 04:00N 39°15' W 010°06'611.2
2017-Oct-10 03:30N 39°21' W 010°06'611.3
2017-Oct-10 03:00N 39°26' W 010°06'611.2
2017-Oct-10 02:30N 39°32' W 010°06'611.6
2017-Oct-10 02:00N 39°38' W 010°06'611.5
2017-Oct-10 01:30N 39°44' W 010°07'611.4
2017-Oct-10 01:00N 39°49' W 010°07'611.2
2017-Oct-10 00:30N 39°55' W 010°06'611.1
2017-Oct-10 00:00N 40°00' W 010°06'711.3
2017-Oct-09 23:21N 40°08' W 010°07'411.2
2017-Oct-09 23:00N 40°12' W 010°07'611.2
2017-Oct-09 22:30N 40°17' W 010°07'611.6
2017-Oct-09 21:59N 40°23' W 010°07'511.3
2017-Oct-09 21:30N 40°29' W 010°07'611.6
2017-Oct-09 21:00N 40°34' W 010°06'611.8
2017-Oct-09 20:30N 40°40' W 010°06'611.6
2017-Oct-09 20:00N 40°46' W 010°06'611.8
2017-Oct-09 19:30N 40°52' W 010°06'611.9
2017-Oct-09 19:00N 40°58' W 010°06'611.6
2017-Oct-09 18:30N 41°04' W 010°06'611.2
2017-Oct-09 18:00N 41°09' W 010°07'611.6
2017-Oct-09 17:30N 41°15' W 010°07'1211.6
2017-Oct-09 16:27N 41°27' W 010°07'  
2017-Oct-07 09:33N 49°48' W 003°24'0 8.8
2017-Oct-07 09:30N 49°48' W 003°23'5 8.8
2017-Oct-07 08:55N 49°50' W 003°16'3 8.3
2017-Oct-07 08:30N 49°51' W 003°11'5 8.0
2017-Oct-07 07:56N 49°54' W 003°05'3 7.7
2017-Oct-07 07:30N 49°55' W 003°00'4 7.8
2017-Oct-07 07:00N 49°57' W 002°55'10511.3
2017-Oct-06 21:43N 49°33' W 000°16'210.2
2017-Oct-06 21:30N 49°32' W 000°13'510.4
2017-Oct-06 21:00N 49°30' W 000°06'510.3
2017-Oct-06 20:30N 49°27' E 000°01'5 9.1
2017-Oct-06 20:01N 49°26' E 000°08'3 6.9
2017-Oct-06 19:30N 49°26' E 000°13'4 7.7
2017-Oct-06 19:00N 49°26' E 000°19'611.9
2017-Oct-06 18:30N 49°28' E 000°27'7 8.7
2017-Oct-06 17:40N 49°26' E 000°38'  
2017-Oct-02 19:57N 49°27' E 000°39'5 8.2
2017-Oct-02 19:18N 49°29' E 000°31'3 8.6
2017-Oct-02 19:01N 49°28' E 000°28'510.1
2017-Oct-02 18:31N 49°26' E 000°20'611.2
2017-Oct-02 18:00N 49°26' E 000°12'612.5
2017-Oct-02 17:30N 49°27' E 000°02'611.1
2017-Oct-02 17:01N 49°29' W 000°05'3 5.1
2017-Oct-02 16:30N 49°30' W 000°09'1 1.2
2017-Oct-02 16:01N 49°30' W 000°10'610.8
2017-Oct-02 15:30N 49°33' W 000°17'2810.7
2017-Oct-02 12:50N 49°44' W 000°58'310.2
2017-Oct-02 12:30N 49°45' W 001°03'5 9.8
2017-Oct-02 12:00N 49°47' W 001°10'4 9.0
2017-Oct-02 11:30N 49°49' W 001°16'5 9.2
2017-Oct-02 11:00N 49°50' W 001°23'5 9.4
2017-Oct-02 10:30N 49°51' W 001°30'510.0
2017-Oct-02 10:01N 49°51' W 001°38'510.7
2017-Oct-02 09:30N 49°52' W 001°46'611.1
2017-Oct-02 09:00N 49°52' W 001°55'611.7
2017-Oct-02 08:30N 49°52' W 002°04'2212.6
2017-Oct-02 06:45N 49°50' W 002°38'312.8
2017-Oct-02 06:29N 49°49' W 002°43'  
Track history (hours):
 
Tides and Currents Weather Stations Pressure Air Temp Water Temp Dewpoint Dewpoint Depression Visibility Wind Speed Wind Dir Waves Ship Positions

Rita Br

Last reported at 2017-Oct-12 05:35 UTC. Time now 2017-Oct-23 04:37 UTC.
Position N 33°08' W 008°42'.
Warning: this ship's position is 10 days out of date.

Length 135 m; draft 6.6 m.

Type: Cargo ship. MMSI: 247216300.

Date/timePositionNaut miles runAvg speedWind from/ knotsBaromVisibWave heightAir tempDewpointWater temp
2017-Oct-12 05:35N 33°08' W 008°42'0 0.0
2017-Oct-12 00:05N 33°08' W 008°42'0 0.1
2017-Oct-11 23:53N 33°08' W 008°42'0 0.0
2017-Oct-11 23:08N 33°08' W 008°42'0 0.1
2017-Oct-11 22:53N 33°08' W 008°42'0 0.1
2017-Oct-11 22:23N 33°08' W 008°42'0 0.0
2017-Oct-11 21:53N 33°08' W 008°42'0 0.0
2017-Oct-11 21:23N 33°08' W 008°42'151 7.0
2017-Oct-10 23:52N 35°37' W 009°16'410.9
2017-Oct-10 23:29N 35°41' W 009°17'611.1
2017-Oct-10 22:59N 35°47' W 009°18'511.1
2017-Oct-10 22:30N 35°52' W 009°20'611.2
2017-Oct-10 22:00N 35°57' W 009°21'611.3
2017-Oct-10 21:30N 36°03' W 009°22'611.3
2017-Oct-10 21:00N 36°09' W 009°23'611.4
2017-Oct-10 20:30N 36°14' W 009°25'510.9
2017-Oct-10 20:00N 36°20' W 009°26'510.8
2017-Oct-10 19:30N 36°25' W 009°28'611.1
2017-Oct-10 19:00N 36°30' W 009°29'611.2
2017-Oct-10 18:30N 36°36' W 009°30'611.4
2017-Oct-10 18:00N 36°41' W 009°32'611.4
2017-Oct-10 17:30N 36°47' W 009°33'611.3
2017-Oct-10 17:00N 36°52' W 009°34'510.9
2017-Oct-10 16:30N 36°57' W 009°36'610.9
2017-Oct-10 15:55N 37°04' W 009°38'711.2
2017-Oct-10 15:20N 37°10' W 009°40'411.4
2017-Oct-10 15:00N 37°14' W 009°41'1211.4
2017-Oct-10 13:55N 37°26' W 009°44'511.4
2017-Oct-10 13:30N 37°30' W 009°46'611.3
2017-Oct-10 13:00N 37°36' W 009°47'611.2
2017-Oct-10 12:30N 37°41' W 009°48'611.2
2017-Oct-10 12:00N 37°47' W 009°50'611.0
2017-Oct-10 11:30N 37°52' W 009°52'611.4
2017-Oct-10 11:00N 37°58' W 009°54'611.5
2017-Oct-10 10:30N 38°03' W 009°55'611.2
2017-Oct-10 10:00N 38°09' W 009°57'611.4
2017-Oct-10 09:30N 38°14' W 009°58'611.2
2017-Oct-10 09:00N 38°20' W 010°00'611.1
2017-Oct-10 08:30N 38°25' W 010°01'611.3
2017-Oct-10 08:00N 38°31' W 010°03'611.2
2017-Oct-10 07:30N 38°36' W 010°04'611.2
2017-Oct-10 07:00N 38°42' W 010°06'611.0
2017-Oct-10 06:30N 38°47' W 010°06'611.4
2017-Oct-10 06:00N 38°53' W 010°07'611.4
2017-Oct-10 05:30N 38°59' W 010°07'510.9
2017-Oct-10 05:00N 39°04' W 010°06'510.9
2017-Oct-10 04:30N 39°10' W 010°06'611.2
2017-Oct-10 04:00N 39°15' W 010°06'611.2
2017-Oct-10 03:30N 39°21' W 010°06'611.3
2017-Oct-10 03:00N 39°26' W 010°06'611.2
2017-Oct-10 02:30N 39°32' W 010°06'611.6
2017-Oct-10 02:00N 39°38' W 010°06'611.5
2017-Oct-10 01:30N 39°44' W 010°07'611.4
2017-Oct-10 01:00N 39°49' W 010°07'611.2
2017-Oct-10 00:30N 39°55' W 010°06'611.1
2017-Oct-10 00:00N 40°00' W 010°06'711.3
2017-Oct-09 23:21N 40°08' W 010°07'411.2
2017-Oct-09 23:00N 40°12' W 010°07'611.2
2017-Oct-09 22:30N 40°17' W 010°07'611.6
2017-Oct-09 21:59N 40°23' W 010°07'511.3
2017-Oct-09 21:30N 40°29' W 010°07'611.6
2017-Oct-09 21:00N 40°34' W 010°06'611.8
2017-Oct-09 20:30N 40°40' W 010°06'611.6
2017-Oct-09 20:00N 40°46' W 010°06'611.8
2017-Oct-09 19:30N 40°52' W 010°06'611.9
2017-Oct-09 19:00N 40°58' W 010°06'611.6
2017-Oct-09 18:30N 41°04' W 010°06'611.2
2017-Oct-09 18:00N 41°09' W 010°07'611.6
2017-Oct-09 17:30N 41°15' W 010°07'1211.6
2017-Oct-09 16:27N 41°27' W 010°07'  
2017-Oct-07 09:33N 49°48' W 003°24'0 8.8
2017-Oct-07 09:30N 49°48' W 003°23'5 8.8
2017-Oct-07 08:55N 49°50' W 003°16'3 8.3
2017-Oct-07 08:30N 49°51' W 003°11'5 8.0
2017-Oct-07 07:56N 49°54' W 003°05'3 7.7
2017-Oct-07 07:30N 49°55' W 003°00'4 7.8
2017-Oct-07 07:00N 49°57' W 002°55'10511.3
2017-Oct-06 21:43N 49°33' W 000°16'210.2
2017-Oct-06 21:30N 49°32' W 000°13'510.4
2017-Oct-06 21:00N 49°30' W 000°06'510.3
2017-Oct-06 20:30N 49°27' E 000°01'5 9.1
2017-Oct-06 20:01N 49°26' E 000°08'3 6.9
2017-Oct-06 19:30N 49°26' E 000°13'4 7.7
2017-Oct-06 19:00N 49°26' E 000°19'611.9
2017-Oct-06 18:30N 49°28' E 000°27'7 8.7
2017-Oct-06 17:40N 49°26' E 000°38'  
2017-Oct-02 19:57N 49°27' E 000°39'5 8.2
2017-Oct-02 19:18N 49°29' E 000°31'3 8.6
2017-Oct-02 19:01N 49°28' E 000°28'510.1
2017-Oct-02 18:31N 49°26' E 000°20'611.2
2017-Oct-02 18:00N 49°26' E 000°12'612.5
2017-Oct-02 17:30N 49°27' E 000°02'611.1
2017-Oct-02 17:01N 49°29' W 000°05'3 5.1
2017-Oct-02 16:30N 49°30' W 000°09'1 1.2
2017-Oct-02 16:01N 49°30' W 000°10'610.8
2017-Oct-02 15:30N 49°33' W 000°17'2810.7
2017-Oct-02 12:50N 49°44' W 000°58'310.2
2017-Oct-02 12:30N 49°45' W 001°03'5 9.8
2017-Oct-02 12:00N 49°47' W 001°10'4 9.0
2017-Oct-02 11:30N 49°49' W 001°16'5 9.2
2017-Oct-02 11:00N 49°50' W 001°23'5 9.4
2017-Oct-02 10:30N 49°51' W 001°30'510.0
2017-Oct-02 10:01N 49°51' W 001°38'510.7
2017-Oct-02 09:30N 49°52' W 001°46'611.1
2017-Oct-02 09:00N 49°52' W 001°55'611.7
2017-Oct-02 08:30N 49°52' W 002°04'2212.6
2017-Oct-02 06:45N 49°50' W 002°38'312.8
2017-Oct-02 06:29N 49°49' W 002°43'  

Dump ship's entire track history